Time;durP1;ratioP1;P1;durP2;ratioP2;P2;SDS_P1;SDS_P2;PMS_P1;PMS_P2;Temp;Humidity;BMP_temperature;BMP_pressure;BME280_temperature;BME280_humidity;BME280_pressure;Samples;Min_cycle;Max_cycle;Signal;HPM_P1;HPM_P2
2022/12/03 00:01:50;;;;;;;;;;;;;;;;;;4974067;28;2029;-47
2022/12/03 00:04:17;;;;;;;;;;;;;;;;;;4973757;28;2109;-51
2022/12/03 00:06:44;;;;;;;;;;;;;;;;;;4973943;28;2593;-45
2022/12/03 00:09:11;;;;;;;;;;;;;;;;;;4973649;28;2060;-46
2022/12/03 00:11:38;;;;;;;;;;;;;;;;;;4973439;28;2221;-48
2022/12/03 00:14:05;;;;;;;;;;;;;;;;;;4992342;28;1939;-46
2022/12/03 00:16:32;;;;;;;;;;;;;;;;;;4991839;28;2061;-47
2022/12/03 00:18:59;;;;;;;;;;;;;;;;;;5007507;28;1972;-47
2022/12/03 00:21:28;;;;;;;;;;;;;;;;;;4992695;28;1863;-45
2022/12/03 00:23:55;;;;;;;;;;;;;;;;;;4992667;28;2054;-44
2022/12/03 00:26:22;;;;;;;;;;;;;;;;;;4992620;28;2296;-48
2022/12/03 00:28:50;;;;;;;;;;;;;;;;;;4992643;28;2026;-49
2022/12/03 00:31:22;;;;;;;;;;;;;;;;;;4992775;28;1976;-48
2022/12/03 00:33:49;;;;;;;;;;;;;;;;;;4992876;28;1891;-49
2022/12/03 00:36:17;;;;;;;;;;;;;;;;;;4991849;28;2003;-47
2022/12/03 00:38:44;;;;;;;;;;;;;;;;;;4973180;28;1921;-46
2022/12/03 00:41:11;;;;;;;;;;;;;;;;;;4972975;28;2036;-46
2022/12/03 00:43:38;;;;;;;;;;;;;;;;;;4973326;28;1933;-47
2022/12/03 00:46:05;;;;;;;;;;;;;;;;;;4973028;28;2090;-46
2022/12/03 00:48:33;;;;;;;;;;;;;;;;;;4973185;28;2357;-45
2022/12/03 00:51:00;;;;;;;;;;;;;;;;;;4973182;28;2006;-50
2022/12/03 00:53:27;;;;;;;;;;;;;;;;;;4972853;28;1866;-50
2022/12/03 00:55:54;;;;;;;;;;;;;;;;;;4973203;28;2089;-48
2022/12/03 00:58:22;;;;;;;;;;;;;;;;;;4972713;28;1993;-45
2022/12/03 01:00:49;;;;;;;;;;;;;;;;;;4972951;28;2047;-46
2022/12/03 01:03:17;;;;;;;;;;;;;;;;;;4972597;28;1961;-48
2022/12/03 01:05:44;;;;;;;;;;;;;;;;;;4983942;28;2039;-48
2022/12/03 01:08:11;;;;;;;;;;;;;;;;;;4991885;28;2092;-48
2022/12/03 01:10:38;;;;;;;;;;;;;;;;;;4992199;28;2304;-47
2022/12/03 01:13:05;;;;;;;;;;;;;;;;;;4992194;28;1963;-45
2022/12/03 01:15:32;;;;;;;;;;;;;;;;;;4992257;28;1922;-47
2022/12/03 01:18:00;;;;;;;;;;;;;;;;;;4992090;28;1978;-46
2022/12/03 01:20:27;;;;;;;;;;;;;;;;;;4991765;28;1879;-47
2022/12/03 01:22:54;;;;;;;;;;;;;;;;;;4991896;28;1737;-49
2022/12/03 01:25:21;;;;;;;;;;;;;;;;;;4991673;28;2104;-48
2022/12/03 01:27:49;;;;;;;;;;;;;;;;;;4991910;28;2040;-48
2022/12/03 01:30:18;;;;;;;;;;;;;;;;;;4991457;28;2182;-50
2022/12/03 01:32:45;;;;;;;;;;;;;;;;;;4991426;28;1936;-48
2022/12/03 01:35:12;;;;;;;;;;;;;;;;;;4991764;28;1919;-48
2022/12/03 01:37:39;;;;;;;;;;;;;;;;;;4980001;28;1984;-47
2022/12/03 01:40:07;;;;;;;;;;;;;;;;;;4972394;28;1888;-44
2022/12/03 01:42:35;;;;;;;;;;;;;;;;;;4972411;28;2106;-46
2022/12/03 01:45:03;;;;;;;;;;;;;;;;;;4972561;28;1920;-50
2022/12/03 01:47:31;;;;;;;;;;;;;;;;;;4972061;28;2016;-45
2022/12/03 01:50:01;;;;;;;;;;;;;;;;;;4972158;28;2041;-46
2022/12/03 01:52:34;;;;;;;;;;;;;;;;;;4972118;28;2104;-43
2022/12/03 01:55:03;;;;;;;;;;;;;;;;;;4972427;28;2114;-46
2022/12/03 01:57:41;;;;;;;;;;;;;;;;;;4972236;28;1914;-48
2022/12/03 02:00:12;;;;;;;;;;;;;;;;;;4971874;28;1933;-47
2022/12/03 02:02:40;;;;;;;;;;;;;;;;;;4971929;28;1904;-47
2022/12/03 02:05:17;;;;;;;;;;;;;;;;;;4978747;28;1984;-47
2022/12/03 02:07:45;;;;;;;;;;;;;;;;;;4991503;28;1888;-47
2022/12/03 02:10:13;;;;;;;;;;;;;;;;;;4991285;28;2210;-50
2022/12/03 02:12:43;;;;;;;;;;;;;;;;;;4991268;28;1903;-48
2022/12/03 02:15:10;;;;;;;;;;;;;;;;;;5006541;28;1990;-49
2022/12/03 02:17:38;;;;;;;;;;;;;;;;;;4991356;28;2253;-47
2022/12/03 02:20:07;;;;;;;;;;;;;;;;;;4991774;28;1899;-41
2022/12/03 02:22:53;;;;;;;;;;;;;;;;;;4991539;28;2148;-45
2022/12/03 02:25:21;;;;;;;;;;;;;;;;;;4971819;28;1812;-48
2022/12/03 02:27:49;;;;;;;;;;;;;;;;;;4971905;28;2140;-50
2022/12/03 02:30:18;;;;;;;;;;;;;;;;;;4971851;28;1966;-48
2022/12/03 02:32:46;;;;;;;;;;;;;;;;;;4971982;28;2515;-45
2022/12/03 02:35:23;;;;;;;;;;;;;;;;;;4971889;28;1792;-45
2022/12/03 02:37:53;;;;;;;;;;;;;;;;;;4984675;28;1894;-48
2022/12/03 02:40:23;;;;;;;;;;;;;;;;;;4991309;28;1942;-48
2022/12/03 02:42:52;;;;;;;;;;;;;;;;;;4992642;28;1801;-47
2022/12/03 02:45:21;;;;;;;;;;;;;;;;;;4994646;28;1959;-49
2022/12/03 02:48:14;;;;;;;;;;;;;;;;;;4994620;28;2192;-48
2022/12/03 02:50:52;;;;;;;;;;;;;;;;;;4992281;28;2352;-47
2022/12/03 02:53:22;;;;;;;;;;;;;;;;;;4994612;28;2067;-46
2022/12/03 02:55:50;;;;;;;;;;;;;;;;;;4994586;28;1743;-47
2022/12/03 02:58:17;;;;;;;;;;;;;;;;;;4994122;28;2198;-50
2022/12/03 03:00:45;;;;;;;;;;;;;;;;;;4994400;28;2204;-46
2022/12/03 03:03:12;;;;;;;;;;;;;;;;;;4994383;28;1838;-47
2022/12/03 03:05:40;;;;;;;;;;;;;;;;;;4994183;28;1956;-46
2022/12/03 03:08:07;;;;;;;;;;;;;;;;;;4994418;28;2024;-49
2022/12/03 03:10:36;;;;;;;;;;;;;;;;;;4994361;28;1983;-44
2022/12/03 03:13:06;;;;;;;;;;;;;;;;;;4994218;28;1948;-49
2022/12/03 03:15:34;;;;;;;;;;;;;;;;;;4994448;28;1510;-49
2022/12/03 03:18:01;;;;;;;;;;;;;;;;;;4994175;28;2033;-49
2022/12/03 03:20:28;;;;;;;;;;;;;;;;;;4994175;28;2251;-50
2022/12/03 03:23:03;;;;;;;;;;;;;;;;;;4993874;28;1977;-48
2022/12/03 03:25:31;;;;;;;;;;;;;;;;;;4993777;28;2098;-45
2022/12/03 03:27:58;;;;;;;;;;;;;;;;;;4993933;28;2018;-48
2022/12/03 03:30:28;;;;;;;;;;;;;;;;;;5009096;28;2000;-50
2022/12/03 03:32:55;;;;;;;;;;;;;;;;;;4993923;28;1864;-44
2022/12/03 03:35:23;;;;;;;;;;;;;;;;;;4993917;28;1932;-46
2022/12/03 03:37:53;;;;;;;;;;;;;;;;;;4993646;28;1998;-46
2022/12/03 03:40:20;;;;;;;;;;;;;;;;;;4993724;28;2056;-44
2022/12/03 03:42:48;;;;;;;;;;;;;;;;;;4993820;28;1855;-47
2022/12/03 03:45:15;;;;;;;;;;;;;;;;;;4993756;28;1827;-45
2022/12/03 03:47:42;;;;;;;;;;;;;;;;;;4993588;28;1887;-47
2022/12/03 03:50:11;;;;;;;;;;;;;;;;;;4993447;28;1931;-50
2022/12/03 03:52:38;;;;;;;;;;;;;;;;;;4993410;28;1836;-46
2022/12/03 03:55:06;;;;;;;;;;;;;;;;;;4992989;28;2282;-48
2022/12/03 03:57:34;;;;;;;;;;;;;;;;;;4993637;28;1755;-46
2022/12/03 04:00:01;;;;;;;;;;;;;;;;;;4993285;28;1945;-48
2022/12/03 04:02:31;;;;;;;;;;;;;;;;;;4993308;28;1852;-45
2022/12/03 04:04:59;;;;;;;;;;;;;;;;;;4993152;28;2114;-50
2022/12/03 04:07:26;;;;;;;;;;;;;;;;;;4993397;28;2295;-46
2022/12/03 04:09:53;;;;;;;;;;;;;;;;;;4993288;28;1950;-49
2022/12/03 04:15:06;;;;;;;;;;;;;;;;;;4993291;28;2011;-51
2022/12/03 04:17:33;;;;;;;;;;;;;;;;;;4993151;28;2068;-48
2022/12/03 04:20:00;;;;;;;;;;;;;;;;;;4993157;28;2488;-46
2022/12/03 04:22:40;;;;;;;;;;;;;;;;;;4992849;28;2190;-50
2022/12/03 04:30:40;;;;;;;;;;;;;;;;;;4973370;28;2106;-48
2022/12/03 04:35:52;;;;;;;;;;;;;;;;;;4973240;28;2061;-46
2022/12/03 04:38:19;;;;;;;;;;;;;;;;;;4989968;28;1777;-46
2022/12/03 04:41:05;;;;;;;;;;;;;;;;;;4992660;28;2155;-49
2022/12/03 04:43:33;;;;;;;;;;;;;;;;;;4992800;28;1911;-49
2022/12/03 04:46:01;;;;;;;;;;;;;;;;;;4992562;28;1923;-48
2022/12/03 04:48:28;;;;;;;;;;;;;;;;;;4992321;28;1793;-46
2022/12/03 04:50:55;;;;;;;;;;;;;;;;;;4992148;28;1908;-46
2022/12/03 04:53:22;;;;;;;;;;;;;;;;;;4992504;28;2038;-45
2022/12/03 04:55:50;;;;;;;;;;;;;;;;;;4992456;28;1939;-49
2022/12/03 04:58:17;;;;;;;;;;;;;;;;;;4992134;28;2135;-48
2022/12/03 05:00:45;;;;;;;;;;;;;;;;;;4992341;28;1965;-46
2022/12/03 05:03:12;;;;;;;;;;;;;;;;;;4992286;28;2008;-48
2022/12/03 05:05:39;;;;;;;;;;;;;;;;;;4992072;28;2084;-46
2022/12/03 05:08:07;;;;;;;;;;;;;;;;;;4992016;28;1712;-46
2022/12/03 05:10:36;;;;;;;;;;;;;;;;;;4992156;28;2142;-49
2022/12/03 05:13:03;;;;;;;;;;;;;;;;;;4992422;28;1875;-45
2022/12/03 05:15:30;;;;;;;;;;;;;;;;;;4992094;28;1800;-46
2022/12/03 05:17:57;;;;;;;;;;;;;;;;;;4991928;28;2040;-47
2022/12/03 05:20:42;;;;;;;;;;;;;;;;;;4992154;28;2135;-48
2022/12/03 05:23:15;;;;;;;;;;;;;;;;;;4991777;28;2036;-45
2022/12/03 05:25:42;;;;;;;;;;;;;;;;;;4991881;28;1902;-47
2022/12/03 05:28:10;;;;;;;;;;;;;;;;;;4991867;28;2130;-46
2022/12/03 05:30:37;;;;;;;;;;;;;;;;;;4991694;28;2104;-43
2022/12/03 05:33:04;;;;;;;;;;;;;;;;;;4992019;28;1772;-45
2022/12/03 05:35:32;;;;;;;;;;;;;;;;;;4991770;28;2365;-50
2022/12/03 05:37:59;;;;;;;;;;;;;;;;;;4977526;28;1959;-48
2022/12/03 05:40:27;;;;;;;;;;;;;;;;;;4972362;28;1859;-48
2022/12/03 05:42:55;;;;;;;;;;;;;;;;;;4972144;28;2101;-45
2022/12/03 05:45:23;;;;;;;;;;;;;;;;;;4972336;28;1962;-45
2022/12/03 05:47:54;;;;;;;;;;;;;;;;;;4972327;28;1987;-48
2022/12/03 05:50:22;;;;;;;;;;;;;;;;;;4972198;28;2156;-46
2022/12/03 05:52:49;;;;;;;;;;;;;;;;;;4972303;28;1853;-44
2022/12/03 05:55:17;;;;;;;;;;;;;;;;;;4972295;28;2140;-46
2022/12/03 05:57:44;;;;;;;;;;;;;;;;;;4972187;28;1937;-44
2022/12/03 06:00:13;;;;;;;;;;;;;;;;;;4972146;28;1828;-49
2022/12/03 06:02:40;;;;;;;;;;;;;;;;;;4972049;28;2147;-45
2022/12/03 06:05:08;;;;;;;;;;;;;;;;;;4978775;28;2245;-46
2022/12/03 06:07:35;;;;;;;;;;;;;;;;;;4991350;28;2048;-46
2022/12/03 06:10:07;;;;;;;;;;;;;;;;;;4991595;28;2135;-50
2022/12/03 06:12:34;;;;;;;;;;;;;;;;;;4991717;28;1850;-46
2022/12/03 06:15:01;;;;;;;;;;;;;;;;;;4991728;28;2016;-48
2022/12/03 06:17:28;;;;;;;;;;;;;;;;;;4992403;28;1407;-47
2022/12/03 06:19:55;;;;;;;;;;;;;;;;;;5010106;28;2131;-45
2022/12/03 06:22:22;;;;;;;;;;;;;;;;;;4995196;28;1925;-47
2022/12/03 06:24:50;;;;;;;;;;;;;;;;;;4993189;28;1462;-43
2022/12/03 06:27:17;;;;;;;;;;;;;;;;;;4995161;28;2028;-41
2022/12/03 06:29:44;;;;;;;;;;;;;;;;;;4994807;28;1967;-47
2022/12/03 06:32:12;;;;;;;;;;;;;;;;;;4995127;28;1787;-47
2022/12/03 06:34:39;;;;;;;;;;;;;;;;;;4993876;28;2023;-50
2022/12/03 06:37:06;;;;;;;;;;;;;;;;;;4987533;28;2058;-47
2022/12/03 06:39:33;;;;;;;;;;;;;;;;;;4975584;28;2043;-45
2022/12/03 06:42:00;;;;;;;;;;;;;;;;;;4975248;28;2127;-42
2022/12/03 06:44:27;;;;;;;;;;;;;;;;;;4975293;28;1809;-45
2022/12/03 06:46:55;;;;;;;;;;;;;;;;;;4975253;28;2119;-49
2022/12/03 06:49:22;;;;;;;;;;;;;;;;;;4975157;28;2123;-45
2022/12/03 06:51:50;;;;;;;;;;;;;;;;;;4974962;28;2080;-45
2022/12/03 06:54:17;;;;;;;;;;;;;;;;;;4975084;28;1981;-46
2022/12/03 06:56:45;;;;;;;;;;;;;;;;;;4975072;28;1880;-45
2022/12/03 06:59:12;;;;;;;;;;;;;;;;;;4974675;28;1726;-46
2022/12/03 07:01:39;;;;;;;;;;;;;;;;;;4974748;28;2027;-45
2022/12/03 07:04:06;;;;;;;;;;;;;;;;;;4975127;28;1973;-49
2022/12/03 07:06:33;;;;;;;;;;;;;;;;;;4991986;28;2003;-45
2022/12/03 07:09:01;;;;;;;;;;;;;;;;;;4993908;28;1843;-50
2022/12/03 07:11:31;;;;;;;;;;;;;;;;;;4994378;28;1975;-44
2022/12/03 07:13:59;;;;;;;;;;;;;;;;;;4994146;28;2021;-44
2022/12/03 07:16:30;;;;;;;;;;;;;;;;;;4992863;28;2001;-46
2022/12/03 07:18:57;;;;;;;;;;;;;;;;;;4994049;28;1999;-45
2022/12/03 07:21:24;;;;;;;;;;;;;;;;;;4994287;28;2023;-48
2022/12/03 07:23:52;;;;;;;;;;;;;;;;;;4993843;28;1952;-46
2022/12/03 07:26:19;;;;;;;;;;;;;;;;;;4993791;28;1969;-44
2022/12/03 07:28:47;;;;;;;;;;;;;;;;;;4993114;28;2023;-46
2022/12/03 07:31:15;;;;;;;;;;;;;;;;;;4993640;28;2225;-46
2022/12/03 07:33:43;;;;;;;;;;;;;;;;;;4994063;28;1914;-43
2022/12/03 07:36:10;;;;;;;;;;;;;;;;;;4993721;28;1806;-45
2022/12/03 07:38:38;;;;;;;;;;;;;;;;;;4974363;28;1926;-44
2022/12/03 07:41:05;;;;;;;;;;;;;;;;;;4987761;28;1923;-48
2022/12/03 07:43:32;;;;;;;;;;;;;;;;;;4993659;28;2021;-45
2022/12/03 07:46:00;;;;;;;;;;;;;;;;;;4993500;28;2109;-47
2022/12/03 07:48:27;;;;;;;;;;;;;;;;;;4993581;28;2124;-48
2022/12/03 07:50:55;;;;;;;;;;;;;;;;;;4993151;28;1908;-47
2022/12/03 07:53:23;;;;;;;;;;;;;;;;;;4993533;28;1794;-48
2022/12/03 07:55:50;;;;;;;;;;;;;;;;;;4993599;28;1998;-44
2022/12/03 07:58:18;;;;;;;;;;;;;;;;;;4993513;28;1827;-47
2022/12/03 08:00:46;;;;;;;;;;;;;;;;;;5008256;28;1863;-48
2022/12/03 08:03:15;;;;;;;;;;;;;;;;;;4993291;28;2380;-47
2022/12/03 08:05:45;;;;;;;;;;;;;;;;;;4996617;28;2075;-46
2022/12/03 08:08:13;;;;;;;;;;;;;;;;;;4973721;28;2076;-49
2022/12/03 08:10:41;;;;;;;;;;;;;;;;;;4982956;28;1981;-46
2022/12/03 08:13:12;;;;;;;;;;;;;;;;;;4992558;28;1978;-42
2022/12/03 08:15:41;;;;;;;;;;;;;;;;;;4993072;28;1910;-46
2022/12/03 08:18:13;;;;;;;;;;;;;;;;;;4993129;28;1816;-44
2022/12/03 08:20:41;;;;;;;;;;;;;;;;;;4992940;28;2016;-45
2022/12/03 08:23:15;;;;;;;;;;;;;;;;;;4993029;28;1885;-43
2022/12/03 08:25:43;;;;;;;;;;;;;;;;;;4992721;28;1962;-46
2022/12/03 08:28:14;;;;;;;;;;;;;;;;;;4992722;28;1959;-47
2022/12/03 08:30:42;;;;;;;;;;;;;;;;;;4992774;28;2044;-43
2022/12/03 08:33:15;;;;;;;;;;;;;;;;;;4992894;28;1919;-48
2022/12/03 08:35:48;;;;;;;;;;;;;;;;;;4992645;28;2200;-47
2022/12/03 08:38:17;;;;;;;;;;;;;;;;;;4975992;28;1947;-46
2022/12/03 08:40:45;;;;;;;;;;;;;;;;;;4972740;28;1724;-49
2022/12/03 08:43:18;;;;;;;;;;;;;;;;;;4972936;28;2070;-47
2022/12/03 08:45:45;;;;;;;;;;;;;;;;;;4973291;28;2046;-48
2022/12/03 08:48:18;;;;;;;;;;;;;;;;;;4972984;28;1931;-49
2022/12/03 08:50:45;;;;;;;;;;;;;;;;;;4981577;28;1979;-41
2022/12/03 08:53:45;;;;;;;;;;;;;;;;;;4991197;28;1870;-48
2022/12/03 08:56:26;;;;;;;;;;;;;;;;;;4974023;28;2157;-46
2022/12/03 08:59:00;;;;;;;;;;;;;;;;;;4991388;28;1864;-49
2022/12/03 09:01:40;;;;;;;;;;;;;;;;;;4991704;28;1886;-48
2022/12/03 09:04:14;;;;;;;;;;;;;;;;;;4992407;28;1776;-47
2022/12/03 09:06:41;;;;;;;;;;;;;;;;;;4972880;28;2531;-48
2022/12/03 09:09:08;;;;;;;;;;;;;;;;;;4972529;28;1791;-44
2022/12/03 09:11:36;;;;;;;;;;;;;;;;;;4972810;28;2239;-47
2022/12/03 09:14:04;;;;;;;;;;;;;;;;;;4980044;28;2144;-46
2022/12/03 09:16:31;;;;;;;;;;;;;;;;;;4991831;28;1913;-46
2022/12/03 09:18:58;;;;;;;;;;;;;;;;;;4992116;28;1972;-45
2022/12/03 09:21:25;;;;;;;;;;;;;;;;;;4991719;28;1882;-47
2022/12/03 09:23:56;;;;;;;;;;;;;;;;;;4991503;28;2203;-47
2022/12/03 09:26:23;;;;;;;;;;;;;;;;;;4991719;28;1893;-47
2022/12/03 09:28:50;;;;;;;;;;;;;;;;;;4991898;28;2049;-46
2022/12/03 09:31:17;;;;;;;;;;;;;;;;;;4991942;28;2083;-48
2022/12/03 09:33:44;;;;;;;;;;;;;;;;;;4990708;28;2041;-44
2022/12/03 09:36:11;;;;;;;;;;;;;;;;;;4991604;28;2051;-45
2022/12/03 09:38:38;;;;;;;;;;;;;;;;;;4991537;28;2288;-44
2022/12/03 09:41:11;;;;;;;;;;;;;;;;;;4991824;28;1986;-49
2022/12/03 09:43:39;;;;;;;;;;;;;;;;;;4991501;28;2104;-52
2022/12/03 09:46:26;;;;;;;;;;;;;;;;;;4991427;28;1829;-46
2022/12/03 09:48:54;;;;;;;;;;;;;;;;;;4991554;28;1983;-45
2022/12/03 09:51:22;;;;;;;;;;;;;;;;;;4990908;28;2059;-47
2022/12/03 09:53:49;;;;;;;;;;;;;;;;;;4992973;28;1864;-48
2022/12/03 09:56:21;;;;;;;;;;;;;;;;;;4993695;28;1833;-49
2022/12/03 09:58:48;;;;;;;;;;;;;;;;;;4993746;28;1869;-50
2022/12/03 10:01:15;;;;;;;;;;;;;;;;;;4992172;28;2000;-43
2022/12/03 10:03:45;;;;;;;;;;;;;;;;;;4992069;28;2051;-41
2022/12/03 10:06:14;;;;;;;;;;;;;;;;;;4993570;28;2073;-44
2022/12/03 10:08:41;;;;;;;;;;;;;;;;;;4995221;28;2166;-46
2022/12/03 10:11:08;;;;;;;;;;;;;;;;;;4995149;28;1939;-45
2022/12/03 10:13:37;;;;;;;;;;;;;;;;;;4995377;28;2328;-46
2022/12/03 10:16:08;;;;;;;;;;;;;;;;;;4995407;28;1939;-46
2022/12/03 10:18:39;;;;;;;;;;;;;;;;;;4995284;28;1846;-46
2022/12/03 10:21:19;;;;;;;;;;;;;;;;;;4995368;28;2087;-42
2022/12/03 10:23:46;;;;;;;;;;;;;;;;;;4994752;28;1954;-46
2022/12/03 10:26:17;;;;;;;;;;;;;;;;;;4994814;28;2093;-45
2022/12/03 10:28:46;;;;;;;;;;;;;;;;;;4994888;28;1948;-48
2022/12/03 10:31:14;;;;;;;;;;;;;;;;;;4994880;28;1989;-49
2022/12/03 10:33:43;;;;;;;;;;;;;;;;;;4994950;28;1988;-50
2022/12/03 10:36:18;;;;;;;;;;;;;;;;;;5009799;28;1967;-46
2022/12/03 10:38:46;;;;;;;;;;;;;;;;;;4975293;28;1848;-48
2022/12/03 10:41:23;;;;;;;;;;;;;;;;;;4975435;28;2031;-46
2022/12/03 10:43:51;;;;;;;;;;;;;;;;;;4975072;28;1996;-46
2022/12/03 10:46:19;;;;;;;;;;;;;;;;;;4975118;28;1872;-47
2022/12/03 10:49:06;;;;;;;;;;;;;;;;;;4973941;28;2005;-46
2022/12/03 10:51:34;;;;;;;;;;;;;;;;;;4978763;28;1923;-48
2022/12/03 10:54:01;;;;;;;;;;;;;;;;;;4984371;28;2057;-46
2022/12/03 10:56:29;;;;;;;;;;;;;;;;;;4994674;28;1937;-46
2022/12/03 10:58:57;;;;;;;;;;;;;;;;;;4977438;28;1870;-41
2022/12/03 11:01:25;;;;;;;;;;;;;;;;;;4974161;28;1954;-45
2022/12/03 11:03:55;;;;;;;;;;;;;;;;;;4973943;28;2099;-48
2022/12/03 11:06:22;;;;;;;;;;;;;;;;;;4991307;28;2008;-50
2022/12/03 11:08:50;;;;;;;;;;;;;;;;;;4993889;28;2052;-46
2022/12/03 11:11:25;;;;;;;;;;;;;;;;;;4994271;28;1914;-45
2022/12/03 11:13:58;;;;;;;;;;;;;;;;;;4992924;28;2211;-42
2022/12/03 11:16:37;;;;;;;;;;;;;;;;;;4992554;28;2077;-48
2022/12/03 11:19:14;;;;;;;;;;;;;;;;;;4994143;28;1971;-47
2022/12/03 11:22:00;;;;;;;;;;;;;;;;;;4994135;28;1831;-48
2022/12/03 11:24:27;;;;;;;;;;;;;;;;;;4993392;28;1891;-51
2022/12/03 11:26:54;;;;;;;;;;;;;;;;;;4990502;28;2007;-47
2022/12/03 11:29:40;;;;;;;;;;;;;;;;;;4992883;28;2099;-48
2022/12/03 11:32:07;;;;;;;;;;;;;;;;;;4994013;28;1994;-47
2022/12/03 11:34:34;;;;;;;;;;;;;;;;;;4993946;28;1874;-45
2022/12/03 11:37:10;;;;;;;;;;;;;;;;;;4986987;28;2077;-44
2022/12/03 11:39:47;;;;;;;;;;;;;;;;;;4974464;28;2107;-45
2022/12/03 11:42:26;;;;;;;;;;;;;;;;;;4974022;28;1968;-43
2022/12/03 11:45:04;;;;;;;;;;;;;;;;;;4974005;28;1891;-48
2022/12/03 11:47:33;;;;;;;;;;;;;;;;;;4973843;28;1962;-47
2022/12/03 11:50:00;;;;;;;;;;;;;;;;;;4991961;28;1824;-45
2022/12/03 11:52:38;;;;;;;;;;;;;;;;;;4993320;28;1990;-50
2022/12/03 11:55:27;;;;;;;;;;;;;;;;;;4993572;28;1950;-50
2022/12/03 11:57:59;;;;;;;;;;;;;;;;;;4982351;28;1908;-48
2022/12/03 12:00:29;;;;;;;;;;;;;;;;;;4973722;28;2131;-44
2022/12/03 12:02:58;;;;;;;;;;;;;;;;;;4973480;28;1972;-46
2022/12/03 12:05:31;;;;;;;;;;;;;;;;;;4983050;28;1822;-45
2022/12/03 12:07:59;;;;;;;;;;;;;;;;;;4973472;28;1905;-44
2022/12/03 12:10:42;;;;;;;;;;;;;;;;;;4972968;28;2091;-46
2022/12/03 12:13:29;;;;;;;;;;;;;;;;;;4972455;28;1939;-45
2022/12/03 12:15:57;;;;;;;;;;;;;;;;;;4972799;28;1934;-46
2022/12/03 12:18:43;;;;;;;;;;;;;;;;;;4973332;28;1807;-44
2022/12/03 12:21:29;;;;;;;;;;;;;;;;;;4973041;28;1934;-46
2022/12/03 12:23:56;;;;;;;;;;;;;;;;;;4972498;28;2010;-47
2022/12/03 12:26:23;;;;;;;;;;;;;;;;;;4972410;28;1932;-48
2022/12/03 12:28:50;;;;;;;;;;;;;;;;;;4973138;28;2043;-47
2022/12/03 12:31:17;;;;;;;;;;;;;;;;;;4973213;28;2172;-44
2022/12/03 12:33:44;;;;;;;;;;;;;;;;;;4973185;28;1832;-48
2022/12/03 12:36:11;;;;;;;;;;;;;;;;;;4973069;28;1624;-47
2022/12/03 12:38:39;;;;;;;;;;;;;;;;;;4973179;28;2097;-45
2022/12/03 12:41:06;;;;;;;;;;;;;;;;;;4973054;28;1981;-46
2022/12/03 12:43:34;;;;;;;;;;;;;;;;;;4972985;28;1804;-48
2022/12/03 12:46:09;;;;;;;;;;;;;;;;;;4972711;28;1853;-48
2022/12/03 12:48:56;;;;;;;;;;;;;;;;;;4973028;28;2005;-46
2022/12/03 12:51:26;;;;;;;;;;;;;;;;;;4972850;28;1914;-44
2022/12/03 12:53:53;;;;;;;;;;;;;;;;;;4972943;28;2019;-47
2022/12/03 12:56:25;;;;;;;;;;;;;;;;;;4972580;28;2010;-47
2022/12/03 12:58:53;;;;;;;;;;;;;;;;;;4973002;28;1892;-49
2022/12/03 13:01:23;;;;;;;;;;;;;;;;;;4972782;28;1967;-47
2022/12/03 13:03:51;;;;;;;;;;;;;;;;;;4972653;28;2071;-50
2022/12/03 13:06:23;;;;;;;;;;;;;;;;;;4988481;28;2046;-42
2022/12/03 13:08:52;;;;;;;;;;;;;;;;;;4992203;28;2068;-45
2022/12/03 13:11:35;;;;;;;;;;;;;;;;;;4992088;28;1964;-50
2022/12/03 13:14:13;;;;;;;;;;;;;;;;;;4992060;28;2135;-46
2022/12/03 13:16:41;;;;;;;;;;;;;;;;;;4992126;28;1829;-48
2022/12/03 13:19:15;;;;;;;;;;;;;;;;;;4992338;28;1975;-47
2022/12/03 13:21:43;;;;;;;;;;;;;;;;;;4991880;28;1882;-46
2022/12/03 13:24:28;;;;;;;;;;;;;;;;;;4991559;28;1798;-47
2022/12/03 13:26:55;;;;;;;;;;;;;;;;;;4989298;28;1945;-46
2022/12/03 13:29:24;;;;;;;;;;;;;;;;;;4991661;28;2067;-48
2022/12/03 13:31:56;;;;;;;;;;;;;;;;;;4991654;28;2055;-47
2022/12/03 13:34:30;;;;;;;;;;;;;;;;;;4991630;28;2124;-48
2022/12/03 13:36:58;;;;;;;;;;;;;;;;;;4991932;28;2150;-48
2022/12/03 13:39:25;;;;;;;;;;;;;;;;;;4991614;28;1995;-46
2022/12/03 13:44:44;;;;;;;;;;;;;;;;;;4991776;28;2002;-46
2022/12/03 13:47:13;;;;;;;;;;;;;;;;;;4991681;28;1963;-44
2022/12/03 13:49:40;;;;;;;;;;;;;;;;;;4991704;28;1970;-44
2022/12/03 13:52:12;;;;;;;;;;;;;;;;;;4991685;28;1919;-44
2022/12/03 13:54:39;;;;;;;;;;;;;;;;;;4991765;28;2042;-43
2022/12/03 13:57:07;;;;;;;;;;;;;;;;;;4991778;28;1854;-47
2022/12/03 13:59:34;;;;;;;;;;;;;;;;;;4990378;28;2165;-43
2022/12/03 14:02:01;;;;;;;;;;;;;;;;;;4991570;28;1762;-47
2022/12/03 14:04:29;;;;;;;;;;;;;;;;;;4991317;28;1784;-45
2022/12/03 14:06:56;;;;;;;;;;;;;;;;;;4990072;28;2076;-45
2022/12/03 14:09:23;;;;;;;;;;;;;;;;;;4991258;28;2069;-43
2022/12/03 14:14:36;;;;;;;;;;;;;;;;;;4991632;28;1862;-47
2022/12/03 14:17:03;;;;;;;;;;;;;;;;;;4991473;28;2103;-47
2022/12/03 14:19:30;;;;;;;;;;;;;;;;;;4991485;28;2054;-45
2022/12/03 14:21:57;;;;;;;;;;;;;;;;;;4991380;28;1853;-48
2022/12/03 14:24:24;;;;;;;;;;;;;;;;;;4990987;28;2095;-45
2022/12/03 14:26:51;;;;;;;;;;;;;;;;;;4991190;28;2026;-46
2022/12/03 14:29:18;;;;;;;;;;;;;;;;;;4991288;28;1984;-44
2022/12/03 14:31:45;;;;;;;;;;;;;;;;;;4991324;28;1914;-43
2022/12/03 14:34:12;;;;;;;;;;;;;;;;;;4991117;28;1751;-46
2022/12/03 14:36:42;;;;;;;;;;;;;;;;;;4991437;28;1921;-44
2022/12/03 14:39:09;;;;;;;;;;;;;;;;;;4993485;28;1912;-45
2022/12/03 14:44:22;;;;;;;;;;;;;;;;;;4994648;28;1897;-49
2022/12/03 14:46:49;;;;;;;;;;;;;;;;;;4994624;28;1784;-45
2022/12/03 14:49:24;;;;;;;;;;;;;;;;;;4994590;28;1758;-46
2022/12/03 14:51:51;;;;;;;;;;;;;;;;;;4994648;28;1915;-47
2022/12/03 14:54:19;;;;;;;;;;;;;;;;;;4994660;28;1914;-46
2022/12/03 14:56:46;;;;;;;;;;;;;;;;;;4994652;28;2020;-45
2022/12/03 14:59:13;;;;;;;;;;;;;;;;;;4994718;28;1992;-45
2022/12/03 15:01:40;;;;;;;;;;;;;;;;;;4994706;28;1981;-47
2022/12/03 15:04:07;;;;;;;;;;;;;;;;;;4994608;28;2225;-48
2022/12/03 15:06:34;;;;;;;;;;;;;;;;;;4994299;28;2187;-46
2022/12/03 15:09:02;;;;;;;;;;;;;;;;;;4994261;28;1974;-48
2022/12/03 15:11:29;;;;;;;;;;;;;;;;;;4994392;28;2025;-45
2022/12/03 15:13:56;;;;;;;;;;;;;;;;;;4993992;28;2006;-46
2022/12/03 15:16:23;;;;;;;;;;;;;;;;;;4994210;28;2243;-49
2022/12/03 15:18:51;;;;;;;;;;;;;;;;;;4994300;28;1730;-51
2022/12/03 15:21:18;;;;;;;;;;;;;;;;;;4994075;28;2444;-47
2022/12/03 15:23:45;;;;;;;;;;;;;;;;;;4994104;28;2155;-44
2022/12/03 15:26:16;;;;;;;;;;;;;;;;;;4993826;28;2048;-44
2022/12/03 15:28:43;;;;;;;;;;;;;;;;;;4993965;28;2032;-48
2022/12/03 15:31:13;;;;;;;;;;;;;;;;;;4993967;28;1801;-49
2022/12/03 15:33:41;;;;;;;;;;;;;;;;;;4993959;28;1926;-44
2022/12/03 15:36:09;;;;;;;;;;;;;;;;;;4994004;28;2160;-46
2022/12/03 15:38:37;;;;;;;;;;;;;;;;;;4994061;28;2145;-48
2022/12/03 15:41:20;;;;;;;;;;;;;;;;;;4993530;28;1813;-44
2022/12/03 15:43:49;;;;;;;;;;;;;;;;;;4993838;28;2171;-46
2022/12/03 15:46:17;;;;;;;;;;;;;;;;;;4993448;28;1953;-43
2022/12/03 15:48:45;;;;;;;;;;;;;;;;;;4993679;28;2104;-45
2022/12/03 15:51:12;;;;;;;;;;;;;;;;;;4992515;28;2083;-50
2022/12/03 15:53:39;;;;;;;;;;;;;;;;;;4993653;28;1915;-46
2022/12/03 15:56:07;;;;;;;;;;;;;;;;;;4993816;28;1852;-46
2022/12/03 15:58:34;;;;;;;;;;;;;;;;;;4993446;28;1976;-45
2022/12/03 16:01:01;;;;;;;;;;;;;;;;;;4993431;28;2163;-43
2022/12/03 16:03:28;;;;;;;;;;;;;;;;;;4993427;28;2014;-48
2022/12/03 16:05:55;;;;;;;;;;;;;;;;;;4993067;28;1913;-47
2022/12/03 16:08:24;;;;;;;;;;;;;;;;;;4993212;28;2011;-48
2022/12/03 16:10:51;;;;;;;;;;;;;;;;;;4993180;28;2223;-49
2022/12/03 16:13:18;;;;;;;;;;;;;;;;;;4993097;28;1976;-49
2022/12/03 16:15:45;;;;;;;;;;;;;;;;;;4993040;28;2058;-48
2022/12/03 16:18:13;;;;;;;;;;;;;;;;;;4993072;28;1882;-48
2022/12/03 16:20:41;;;;;;;;;;;;;;;;;;4993098;28;2026;-43
2022/12/03 16:23:09;;;;;;;;;;;;;;;;;;4993206;28;1911;-48
2022/12/03 16:25:37;;;;;;;;;;;;;;;;;;4992918;28;2011;-46
2022/12/03 16:28:04;;;;;;;;;;;;;;;;;;4992885;28;1930;-45
2022/12/03 16:30:31;;;;;;;;;;;;;;;;;;4992882;28;2106;-45
2022/12/03 16:32:58;;;;;;;;;;;;;;;;;;4992766;28;1999;-47
2022/12/03 16:35:26;;;;;;;;;;;;;;;;;;4992742;28;1955;-47
2022/12/03 16:37:53;;;;;;;;;;;;;;;;;;4992643;28;2034;-44
2022/12/03 16:40:20;;;;;;;;;;;;;;;;;;4992524;28;1924;-45
2022/12/03 16:42:49;;;;;;;;;;;;;;;;;;4992666;28;1974;-47
2022/12/03 16:47:49;;;;;;;;;;;;;;;;;;4981387;28;1905;-48
2022/12/03 16:50:16;;;;;;;;;;;;;;;;;;4971945;28;2028;-45
2022/12/03 16:52:50;;;;;;;;;;;;;;;;;;4972577;28;2007;-44
2022/12/03 16:55:17;;;;;;;;;;;;;;;;;;4972548;28;1947;-46
2022/12/03 16:57:44;;;;;;;;;;;;;;;;;;4973131;28;2033;-49
2022/12/03 17:00:11;;;;;;;;;;;;;;;;;;4973019;28;1817;-42
2022/12/03 17:02:38;;;;;;;;;;;;;;;;;;4971914;28;2168;-45
2022/12/03 17:05:06;;;;;;;;;;;;;;;;;;4972782;28;1924;-46
2022/12/03 17:07:33;;;;;;;;;;;;;;;;;;4971665;28;2086;-49
2022/12/03 17:10:00;;;;;;;;;;;;;;;;;;4972724;28;2127;-44
2022/12/03 17:12:27;;;;;;;;;;;;;;;;;;4972242;28;1981;-46
2022/12/03 17:15:08;;;;;;;;;;;;;;;;;;4972928;28;2093;-47
2022/12/03 17:17:35;;;;;;;;;;;;;;;;;;4983462;28;2117;-45
2022/12/03 17:20:04;;;;;;;;;;;;;;;;;;4984948;28;2154;-48
2022/12/03 17:22:31;;;;;;;;;;;;;;;;;;4972295;28;1833;-47
2022/12/03 17:24:59;;;;;;;;;;;;;;;;;;4972136;28;2011;-46
2022/12/03 17:27:28;;;;;;;;;;;;;;;;;;4972206;28;1908;-47
2022/12/03 17:29:55;;;;;;;;;;;;;;;;;;4972462;28;1841;-44
2022/12/03 17:32:22;;;;;;;;;;;;;;;;;;4982636;28;1849;-44
2022/12/03 17:34:49;;;;;;;;;;;;;;;;;;4991978;28;2125;-48
2022/12/03 17:37:16;;;;;;;;;;;;;;;;;;4991741;28;1837;-47
2022/12/03 17:39:44;;;;;;;;;;;;;;;;;;4991740;28;1952;-54